• Join FlightAware (Why Join?)
  • Login
  • US Flag 
11:27PM EDT


 

Airport Tracker/Info


-or-


 

Live Flight TrackerFlight Track Log ✈ RPA3242 ✈ 11-Nov-2013 ✈ KPHL - KALB

Flight Track Log - Related Links

Times and Time Zones

All times are in EST time to prevent confusion due to time zone crossing. See the RPA3242 flight status page for this flight to view local times or setup timezone preferences in your user account.

Time Position Orientation Groundspeed Altitude Reporting Facility
EST Latitude Longitude Course Direction KTS MPH feet Rate Location/Type
09:36PM 39.8667 -75.2667 37° Northeast 150 173 900  Level Philadelphia TRACON
09:37PM 39.8500 -75.3000 237° Southwest 154 177 2,100 2,040 Climbing Philadelphia TRACON
09:38PM 39.8000 -75.3333 207° Southwest 211 243 4,200 2,400 Climbing Philadelphia TRACON
09:39PM 40.1355 -75.1147 37° Northeast  Level Estimated
09:39PM 39.7500 -75.3833 218° Southwest 241 277 6,900  Level Philadelphia TRACON
09:40PM 40.0925 -75.0062 117° Southeast  Level FlightAware Approximate
09:40PM 39.6833 -75.3333 150° Southeast 341 392 9,000  Level Philadelphia TRACON
09:41PM 40.1812 -74.9676 37° Northeast  Level Estimated
09:42PM 40.2699 -74.9290 37° Northeast  Level Estimated
09:42PM 39.7186 -75.1161 78° East 342 394 12,000  Level New York Center
09:43PM 39.7397 -74.9986 77° East 362 417 12,000 180 Level New York Center
09:44PM 39.7675 -74.8597 75° East 362 417 12,400 1,020 Climbing New York Center
09:45PM 39.8189 -74.7600 56° Northeast 362 417 14,100 1,680 Climbing New York Center
09:46PM 39.8950 -74.6669 43° Northeast 355 409 15,800 1,680 Climbing New York Center
09:47PM 39.9819 -74.5553 45° Northeast 376 433 17,500 1,680 Climbing New York Center
09:48PM 40.0622 -74.4567 43° Northeast 389 448 19,200 1,440 Climbing New York Center
09:49PM 40.1483 -74.3661 39° Northeast 394 453 20,500 1,200 Climbing New York Center
09:50PM 40.2386 -74.2758 37° Northeast 399 459 21,600 1,080 Climbing New York Center
09:51PM 40.3331 -74.1825 37° Northeast 411 473 22,700 1,140 Climbing New York Center
09:52PM 40.4275 -74.0864 38° Northeast 416 479 23,900 420 Climbing New York Center
09:53PM 40.6028 -73.9728 26° Northeast 422 486 24,000  Climbing Boston Center
09:54PM 40.7122 -73.9111 23° Northeast 425 489 24,000  Level Boston Center
09:55PM 40.8153 -73.8336 30° Northeast 432 497 24,000  Level Boston Center
09:56PM 40.9058 -73.7233 43° Northeast 442 509 24,000  Level Boston Center
09:57PM 41.0114 -73.6675 22° Northeast 414 476 24,000  Level Boston Center
09:58PM 41.1214 -73.6753 357° North 396 456 24,000 -600 Level Boston Center
09:59PM 41.2283 -73.6839 357° North 386 444 22,800 -1,920 Descending Boston Center
10:01PM 41.3339 -73.6928 356° North 381 438 20,200 -2,340 Descending Boston Center
10:02PM 41.4506 -73.7028 356° North 367 422 18,100 -1,620 Descending Boston Center
10:03PM 41.5469 -73.7094 357° North 351 404 17,000 -1,080 Descending Boston Center
10:04PM 41.6417 -73.7169 357° North 344 396 16,000 -1,140 Descending Boston Center
10:05PM 41.7428 -73.7239 357° North 339 390 14,700 -1,260 Descending Boston Center
10:06PM 41.8361 -73.7319 356° North 338 389 13,500 -1,140 Descending Boston Center
10:06PM 41.8767 -73.7358 356° North 343 395 13,000 -1,200 Descending Boston Center
10:07PM 41.9297 -73.7392 357° North 338 389 12,300 -1,440 Descending Boston Center
10:07PM 41.9550 -73.7417 356° North 337 388 11,900 -1,140 Descending Boston Center
10:08PM 42.0200 -73.7467 357° North 328 377 11,200 -900 Descending Boston Center
10:08PM 42.0442 -73.7483 357° North 320 368 11,000 -240 Descending Boston Center
10:09PM 42.1122 -73.7522 358° North 321 369 11,000  Level Boston Center
10:09PM 42.1456 -73.7564 355° North 313 360 11,000  Level Boston Center
10:10PM 42.2008 -73.7533 North 318 366 11,000 -300 Level Boston Center
10:10PM 42.2325 -73.7392 18° North 327 376 10,700 -1,140 Descending Boston Center
10:11PM 42.3156 -73.7089 15° North 307 353 9,500 -1,200 Descending Boston Center
10:12PM 42.3958 -73.6808 14° North 298 343 8,400 -1,200 Descending Boston Center
10:13PM 42.4747 -73.6608 11° North 282 325 7,200 -1,260 Descending Boston Center
10:14PM 42.5489 -73.6419 11° North 273 314 5,900 -1,260 Descending Boston Center
10:15PM 42.6142 -73.6261 10° North 232 267 4,700 -1,380 Descending Boston Center
10:16PM 42.6814 -73.6222 North 218 251 3,100 -960 Descending Boston Center
10:17PM 42.7347 -73.6344 350° North 185 213 2,800 -660 Descending Boston Center
10:18PM 42.7517 -73.6839 295° West 140 161 1,800 -900 Descending Boston Center
10:19PM 42.7511 -73.7331 269° West 132 152 1,100 -780 Descending Boston Center
10:20PM 42.7483 -73.7847 266° West 138 159 400 -720 Descending Boston Center